< < Back
Terminal Aerodrome Forecast


Current Version              Previous Versions:   1  2  3  4  5  6  7  8  9  

Terminal Aerodrome Forecast

928
FTUS42 KGSP 221735 AAC
TAFHKY
TAF AMD
KHKY 221735Z 2218/2318 06006KT 2SM -DZ BR OVC004
     FM230000 06006KT 1 1/2SM -DZ BR OVC003
     FM230300 04005KT 1SM -DZ BR OVC002
     FM230700 04003KT 1SM -RADZ BR OVC002
     FM231300 05003KT 1 1/2SM -RADZ BR OVC003
     FM231600 03003KT 2SM -RADZ BR OVC007=



Latest METAR

263
SAUS70 KWBC 221700 RRI
MTRHKY
METAR KHKY 221653Z 05006KT 3SM BR BKN004 OVC012 03/02 A3009 RMK AO2 CIG
002V008 SLP185 T00330022


USA.gov is the U.S. government's official web portal to all federal, state and local government web resources and services.